createdAt,value
2022-10-22T12:32:15.366Z,1006.59
2022-10-22T12:33:15.349Z,1006.60
2022-10-22T12:35:25.702Z,1006.65
2022-10-22T12:36:25.679Z,1006.63
2022-10-22T12:37:25.706Z,1006.64
2022-10-22T12:38:25.648Z,1006.62
2022-10-22T12:39:25.629Z,1006.60
2022-10-22T12:40:25.621Z,1006.54
2022-10-22T13:09:46.159Z,1006.39
2022-10-22T13:12:22.031Z,1006.34
2022-10-22T13:13:22.003Z,1006.38
2022-10-22T13:14:21.989Z,1006.30
2022-10-22T13:16:17.685Z,1006.34
2022-10-22T13:17:17.708Z,1006.34
2022-10-22T13:18:17.684Z,1006.39
2022-10-22T13:30:13.866Z,1006.40
2022-10-22T13:31:13.834Z,1006.43
2022-10-22T13:32:13.827Z,1006.45
2022-10-22T13:33:13.819Z,1006.42
2022-10-22T13:34:16.410Z,1006.41
2022-10-22T13:35:13.773Z,1006.35
2022-10-22T13:36:13.760Z,1006.38
2022-10-22T13:40:55.189Z,1006.35
2022-10-22T13:41:55.120Z,1006.35
2022-10-22T13:42:55.113Z,1006.38
2022-10-22T13:43:55.074Z,1006.36
2022-10-22T13:44:55.060Z,1006.33
2022-10-22T13:45:55.055Z,1006.27
2022-10-22T13:46:42.057Z,1006.26
2022-10-22T13:47:42.054Z,1006.23
2022-10-22T13:48:42.015Z,1006.34
2022-10-22T13:49:41.998Z,1006.38
2022-10-22T13:50:41.984Z,1006.40
2022-10-22T13:51:41.969Z,1006.41
2022-10-22T13:52:42.248Z,1006.38
2022-10-22T13:53:41.952Z,1006.44
2022-10-22T13:54:41.930Z,1006.40
2022-10-22T13:55:41.927Z,1006.39
2022-10-22T13:56:41.903Z,1006.39
2022-10-22T13:57:41.906Z,1006.37
2022-10-22T13:58:41.875Z,1006.42
2022-10-22T13:59:41.864Z,1006.39
2022-10-22T14:00:41.887Z,1006.29
2022-10-22T14:01:40.915Z,1006.32
2022-10-22T14:02:41.251Z,1006.28
2022-10-22T14:03:40.886Z,1006.24
